Time;durP1;ratioP1;P1;durP2;ratioP2;P2;SDS_P1;SDS_P2;PMS_P1;PMS_P2;Temp;Humidity;BMP_temperature;BMP_pressure;BME280_temperature;BME280_humidity;BME280_pressure;Samples;Min_cycle;Max_cycle;Signal;HPM_P1;HPM_P2
2022/07/29 00:00:02;;;;;;;2.33;1.27;;;23.40;44.50;;;;;;940450;149;27317;-77
2022/07/29 00:02:29;;;;;;;3.25;1.50;;;23.30;44.60;;;;;;940563;149;27265;-76
2022/07/29 00:04:55;;;;;;;3.42;1.40;;;23.30;44.70;;;;;;940692;149;27381;-76
2022/07/29 00:07:22;;;;;;;1.85;1.47;;;23.30;44.70;;;;;;940544;150;27325;-76
2022/07/29 00:09:48;;;;;;;1.95;1.75;;;23.30;44.80;;;;;;942789;149;27448;-76
2022/07/29 00:12:15;;;;;;;1.47;1.20;;;23.30;44.80;;;;;;952008;148;27329;-76
2022/07/29 00:14:41;;;;;;;1.20;1.10;;;23.20;44.80;;;;;;953653;148;27405;-76
2022/07/29 00:17:08;;;;;;;1.60;1.40;;;23.20;44.80;;;;;;952956;148;27305;-77
2022/07/29 00:19:35;;;;;;;2.85;1.50;;;23.20;44.80;;;;;;953006;148;27427;-77
2022/07/29 00:22:01;;;;;;;1.42;1.30;;;23.20;44.90;;;;;;953454;150;27863;-76
2022/07/29 00:24:28;;;;;;;1.47;1.37;;;23.20;44.90;;;;;;952054;147;27768;-77
2022/07/29 00:26:54;;;;;;;1.65;1.40;;;23.20;44.90;;;;;;953139;147;27420;-76
2022/07/29 00:29:21;;;;;;;3.75;1.55;;;23.20;45.00;;;;;;953009;147;27314;-76
2022/07/29 00:31:48;;;;;;;1.70;1.32;;;23.10;44.90;;;;;;953328;148;27420;-76
2022/07/29 00:36:59;;;;;;;1.95;1.45;;;23.10;45.00;;;;;;954004;147;27442;-76
2022/07/29 00:39:26;;;;;;;1.47;1.37;;;23.10;45.00;;;;;;953081;147;27330;-76
2022/07/29 00:41:52;;;;;;;4.17;1.95;;;23.10;45.10;;;;;;953600;147;27291;-77
2022/07/29 00:44:19;;;;;;;1.67;1.40;;;23.10;45.00;;;;;;953425;147;27307;-76
2022/07/29 00:46:45;;;;;;;1.50;1.40;;;23.00;45.00;;;;;;953772;147;27403;-76
2022/07/29 00:49:12;;;;;;;2.05;1.47;;;23.10;45.10;;;;;;952812;148;27876;-77
2022/07/29 00:51:39;;;;;;;3.75;1.75;;;23.00;45.00;;;;;;952899;148;27345;-78
2022/07/29 00:54:05;;;;;;;1.62;1.35;;;23.00;45.00;;;;;;953067;149;27890;-78
2022/07/29 00:56:32;;;;;;;1.62;1.47;;;23.00;45.10;;;;;;952689;148;27384;-78
2022/07/29 00:58:58;;;;;;;1.57;1.47;;;23.00;45.10;;;;;;953428;147;27333;-76
2022/07/29 01:01:25;;;;;;;2.67;2.40;;;23.00;45.20;;;;;;953642;147;27353;-78
2022/07/29 01:03:51;;;;;;;2.00;1.37;;;23.00;45.10;;;;;;953671;147;27282;-78
2022/07/29 01:06:18;;;;;;;1.90;1.50;;;23.00;45.10;;;;;;953208;147;27287;-77
2022/07/29 01:08:45;;;;;;;3.30;1.52;;;23.00;45.10;;;;;;953071;148;27282;-78
2022/07/29 01:11:11;;;;;;;2.33;1.35;;;23.00;45.00;;;;;;953124;147;27307;-77
2022/07/29 01:13:38;;;;;;;3.77;1.60;;;22.90;45.00;;;;;;952675;148;27353;-78
2022/07/29 01:16:04;;;;;;;3.90;1.60;;;23.00;45.00;;;;;;953221;150;27810;-76
2022/07/29 01:18:31;;;;;;;3.17;1.25;;;22.90;45.00;;;;;;952077;150;27323;-78
2022/07/29 01:21:25;;;;;;;2.87;1.42;;;23.00;45.10;;;;;;953854;147;27325;-77
2022/07/29 01:23:57;;;;;;;1.50;1.20;;;22.90;45.10;;;;;;952941;148;27307;-78
2022/07/29 01:26:39;;;;;;;1.82;1.12;;;22.90;45.00;;;;;;953589;148;27427;-76
2022/07/29 01:29:11;;;;;;;3.58;1.42;;;22.90;45.00;;;;;;953273;147;27346;-78
2022/07/29 01:31:59;;;;;;;2.15;1.40;;;22.90;44.90;;;;;;953110;147;27778;-78
2022/07/29 01:34:25;;;;;;;2.37;1.35;;;22.80;45.00;;;;;;952877;147;27281;-77
2022/07/29 01:36:52;;;;;;;3.08;1.40;;;22.80;44.90;;;;;;951087;149;27451;-77
2022/07/29 01:39:28;;;;;;;2.27;1.27;;;22.80;45.00;;;;;;951668;147;27432;-77
2022/07/29 01:41:57;;;;;;;2.00;1.60;;;22.80;45.00;;;;;;952684;147;27686;-77
2022/07/29 01:44:24;;;;;;;2.25;1.47;;;22.80;45.00;;;;;;952356;147;27431;-78
2022/07/29 01:46:50;;;;;;;1.62;1.50;;;22.80;45.00;;;;;;951954;147;27390;-77
2022/07/29 01:49:28;;;;;;;1.55;1.45;;;22.70;45.00;;;;;;953092;149;27319;-78
2022/07/29 01:51:55;;;;;;;3.58;1.57;;;22.70;45.10;;;;;;953200;147;27913;-77
2022/07/29 01:54:25;;;;;;;2.55;1.62;;;22.70;45.10;;;;;;951511;150;27342;-78
2022/07/29 01:56:51;;;;;;;1.50;1.40;;;22.70;45.20;;;;;;952620;147;27427;-78
2022/07/29 01:59:18;;;;;;;2.12;1.42;;;22.70;45.20;;;;;;952815;147;27797;-77
2022/07/29 02:01:44;;;;;;;2.22;1.62;;;22.60;45.30;;;;;;953946;147;27294;-78
2022/07/29 02:04:11;;;;;;;2.20;1.70;;;22.60;45.30;;;;;;953389;149;27431;-78
2022/07/29 02:06:38;;;;;;;1.72;1.47;;;22.60;45.40;;;;;;953548;150;27470;-78
2022/07/29 02:09:04;;;;;;;1.55;1.45;;;22.60;45.50;;;;;;953495;147;27307;-78
2022/07/29 02:11:31;;;;;;;2.83;1.47;;;22.60;45.50;;;;;;949279;148;27790;-77
2022/07/29 02:13:57;;;;;;;3.62;1.50;;;22.60;45.60;;;;;;940003;149;27292;-78
2022/07/29 02:16:24;;;;;;;1.72;1.37;;;22.60;45.50;;;;;;939957;152;27347;-76
2022/07/29 02:18:50;;;;;;;1.92;1.45;;;22.60;45.50;;;;;;940674;149;27331;-78
2022/07/29 02:21:17;;;;;;;1.52;1.42;;;22.60;45.50;;;;;;940154;152;27285;-78
2022/07/29 02:23:44;;;;;;;3.05;1.55;;;22.50;45.50;;;;;;938860;149;27400;-78
2022/07/29 02:26:10;;;;;;;1.82;1.60;;;22.50;45.50;;;;;;940531;151;27441;-78
2022/07/29 02:28:37;;;;;;;2.35;1.32;;;22.50;45.60;;;;;;940615;149;27257;-77
2022/07/29 02:31:03;;;;;;;2.50;1.57;;;22.50;45.60;;;;;;940660;149;27417;-76
2022/07/29 02:33:30;;;;;;;4.92;1.98;;;22.40;45.60;;;;;;939673;151;27421;-78
2022/07/29 02:35:57;;;;;;;1.30;1.20;;;22.50;46.30;;;;;;940304;152;27397;-78
2022/07/29 02:41:08;;;;;;;1.50;1.40;;;22.40;45.70;;;;;;940973;149;27451;-77
2022/07/29 02:43:35;;;;;;;2.15;1.45;;;22.30;45.70;;;;;;939489;151;27346;-76
2022/07/29 02:46:01;;;;;;;2.90;1.55;;;22.20;45.80;;;;;;940650;149;27870;-78
2022/07/29 02:48:28;;;;;;;1.80;1.42;;;22.20;45.90;;;;;;940345;149;27596;-77
2022/07/29 02:50:54;;;;;;;2.47;1.25;;;22.20;46.00;;;;;;938845;150;27959;-77
2022/07/29 02:53:21;;;;;;;2.65;1.40;;;22.10;46.00;;;;;;939202;149;27611;-75
2022/07/29 02:55:47;;;;;;;3.58;1.45;;;22.00;46.10;;;;;;940521;149;27305;-74
2022/07/29 02:58:14;;;;;;;1.30;1.20;;;22.00;46.20;;;;;;937443;149;27344;-74
2022/07/29 03:00:41;;;;;;;2.50;1.40;;;21.90;46.30;;;;;;939833;151;27432;-77
2022/07/29 03:03:07;;;;;;;2.47;1.40;;;21.90;46.40;;;;;;939356;152;27399;-76
2022/07/29 03:05:34;;;;;;;2.45;1.40;;;21.80;46.50;;;;;;941133;149;27289;-76
2022/07/29 03:08:00;;;;;;;4.42;1.62;;;21.80;46.50;;;;;;940563;149;27940;-76
2022/07/29 03:10:27;;;;;;;3.55;1.75;;;21.70;46.60;;;;;;940097;149;27333;-76
2022/07/29 03:12:54;;;;;;;1.40;1.30;;;21.70;47.30;;;;;;947956;150;27367;-76
2022/07/29 03:15:20;;;;;;;2.67;1.82;;;21.60;46.70;;;;;;953002;147;27231;-76
2022/07/29 03:17:47;;;;;;;11.70;1.50;;;21.60;46.80;;;;;;952986;149;27320;-76
2022/07/29 03:20:13;;;;;;;1.67;1.50;;;21.50;46.90;;;;;;952962;150;27329;-76
2022/07/29 03:22:43;;;;;;;2.47;1.40;;;21.40;46.90;;;;;;953573;147;27329;-76
2022/07/29 03:25:16;;;;;;;2.58;1.30;;;21.40;47.10;;;;;;953108;147;27354;-76
2022/07/29 03:27:42;;;;;;;1.60;1.50;;;21.30;47.10;;;;;;953184;149;27362;-76
2022/07/29 03:30:09;;;;;;;2.25;1.32;;;21.30;47.20;;;;;;952959;147;27322;-76
2022/07/29 03:32:35;;;;;;;1.42;1.30;;;21.30;47.30;;;;;;953411;147;27299;-77
2022/07/29 03:35:02;;;;;;;2.47;1.60;;;21.30;47.50;;;;;;953913;148;27295;-77
2022/07/29 03:37:30;;;;;;;1.67;1.57;;;21.30;47.70;;;;;;952503;147;27421;-77
2022/07/29 03:39:55;;;;;;;1.90;1.70;;;21.30;47.70;;;;;;953183;148;27411;-77
2022/07/29 03:42:22;;;;;;;2.67;2.00;;;21.30;48.40;;;;;;953212;147;27413;-77
2022/07/29 03:44:48;;;;;;;1.62;1.52;;;21.30;47.80;;;;;;952742;150;27755;-77
2022/07/29 03:47:15;;;;;;;2.05;1.60;;;21.30;47.80;;;;;;952677;148;27340;-77
2022/07/29 03:49:42;;;;;;;3.25;2.00;;;21.30;47.90;;;;;;952393;150;27762;-77
2022/07/29 03:52:08;;;;;;;3.90;1.77;;;21.30;47.90;;;;;;953622;147;27483;-77
2022/07/29 03:54:35;;;;;;;1.80;1.60;;;21.40;47.90;;;;;;953478;150;27349;-77
2022/07/29 03:57:01;;;;;;;2.62;1.65;;;21.40;47.80;;;;;;953450;147;27247;-77
2022/07/29 03:59:28;;;;;;;2.58;1.95;;;21.40;47.90;;;;;;953536;149;27443;-77
2022/07/29 04:01:55;;;;;;;2.50;1.72;;;21.50;47.90;;;;;;952814;147;27370;-77
2022/07/29 04:04:21;;;;;;;3.95;1.98;;;21.50;47.80;;;;;;952194;148;27349;-77
2022/07/29 04:06:48;;;;;;;3.17;1.75;;;21.60;47.90;;;;;;953293;147;27349;-77
2022/07/29 04:09:14;;;;;;;1.82;1.60;;;21.60;47.90;;;;;;953199;147;27307;-77
2022/07/29 04:11:41;;;;;;;3.33;1.70;;;21.70;47.90;;;;;;953711;148;27395;-77
2022/07/29 04:14:08;;;;;;;2.92;2.15;;;21.70;47.90;;;;;;949536;148;27316;-77
2022/07/29 04:16:34;;;;;;;2.67;1.67;;;21.70;47.80;;;;;;948493;148;27436;-77
2022/07/29 04:19:01;;;;;;;2.33;1.60;;;21.70;47.80;;;;;;948630;151;27412;-77
2022/07/29 04:21:27;;;;;;;5.33;1.57;;;21.70;47.80;;;;;;948469;148;27295;-77
2022/07/29 04:23:54;;;;;;;2.30;1.50;;;21.60;47.80;;;;;;948410;150;27271;-77
2022/07/29 04:26:20;;;;;;;4.60;1.70;;;21.60;47.80;;;;;;948381;150;27757;-77
2022/07/29 04:28:47;;;;;;;4.87;1.60;;;21.60;47.80;;;;;;947960;148;27428;-77
2022/07/29 04:31:14;;;;;;;1.85;1.47;;;21.60;47.90;;;;;;948191;150;27466;-77
2022/07/29 04:33:40;;;;;;;2.55;1.47;;;21.50;47.90;;;;;;948314;148;27448;-77
2022/07/29 04:36:07;;;;;;;1.57;1.32;;;21.40;48.00;;;;;;948239;148;27661;-77
2022/07/29 04:38:33;;;;;;;3.55;1.42;;;21.40;48.00;;;;;;947546;151;27378;-77
2022/07/29 04:41:00;;;;;;;1.77;1.42;;;21.40;48.10;;;;;;949029;148;27328;-77
2022/07/29 04:43:27;;;;;;;1.42;1.32;;;21.30;48.10;;;;;;947679;148;27435;-77
2022/07/29 04:45:53;;;;;;;3.25;1.77;;;21.30;48.10;;;;;;947595;150;27387;-77
2022/07/29 04:48:20;;;;;;;3.37;2.08;;;21.30;48.20;;;;;;947751;148;27260;-77
2022/07/29 04:50:46;;;;;;;1.82;1.55;;;21.30;48.20;;;;;;948687;150;27299;-77
2022/07/29 04:53:13;;;;;;;2.10;1.65;;;21.30;48.30;;;;;;947864;148;27394;-77
2022/07/29 04:55:40;;;;;;;2.15;1.80;;;21.20;48.30;;;;;;948466;150;27283;-77
2022/07/29 04:58:07;;;;;;;4.60;1.50;;;21.20;48.40;;;;;;947900;148;27442;-77
2022/07/29 05:00:33;;;;;;;2.25;1.65;;;21.20;48.50;;;;;;948162;151;27335;-77
2022/07/29 05:02:59;;;;;;;2.40;1.60;;;21.20;48.60;;;;;;947504;148;27304;-77
2022/07/29 05:05:26;;;;;;;2.50;1.60;;;21.20;48.60;;;;;;947741;148;27411;-77
2022/07/29 05:07:53;;;;;;;2.27;1.70;;;21.20;48.60;;;;;;948202;148;27315;-77
2022/07/29 05:10:19;;;;;;;1.65;1.52;;;21.20;48.80;;;;;;948265;148;27704;-77
2022/07/29 05:12:46;;;;;;;3.22;1.75;;;21.20;48.80;;;;;;948265;150;27411;-77
2022/07/29 05:15:12;;;;;;;4.10;1.70;;;21.20;48.80;;;;;;952288;147;27499;-77
2022/07/29 05:17:39;;;;;;;1.60;1.50;;;21.20;48.80;;;;;;953595;147;27400;-77
2022/07/29 05:20:06;;;;;;;2.17;1.50;;;21.30;48.80;;;;;;953567;147;27356;-77
2022/07/29 05:22:32;;;;;;;3.65;1.60;;;21.30;48.90;;;;;;953445;150;27321;-77
2022/07/29 05:24:59;;;;;;;2.45;1.75;;;21.30;48.90;;;;;;953480;147;27626;-77
2022/07/29 05:27:25;;;;;;;1.98;1.77;;;21.30;48.90;;;;;;952372;147;27322;-77
2022/07/29 05:29:52;;;;;;;1.85;1.70;;;21.40;48.90;;;;;;952929;147;27243;-77
2022/07/29 05:32:18;;;;;;;1.90;1.70;;;21.50;49.00;;;;;;952549;147;27378;-77
2022/07/29 05:34:45;;;;;;;2.42;1.80;;;21.70;49.40;;;;;;951893;147;27314;-77
2022/07/29 05:37:13;;;;;;;3.75;1.82;;;22.00;50.10;;;;;;953961;147;27338;-77
2022/07/29 05:39:38;;;;;;;2.77;1.60;;;22.40;50.70;;;;;;952979;147;27712;-77
2022/07/29 05:42:05;;;;;;;2.33;1.80;;;23.10;51.00;;;;;;952117;150;27311;-77
2022/07/29 05:44:31;;;;;;;1.27;1.17;;;23.90;50.90;;;;;;952038;147;27287;-77
2022/07/29 05:46:58;;;;;;;5.17;2.05;;;24.80;50.20;;;;;;952383;150;27291;-78
2022/07/29 05:49:25;;;;;;;5.08;2.10;;;25.70;49.10;;;;;;952725;147;27315;-78
2022/07/29 05:51:51;;;;;;;4.05;1.85;;;26.50;48.10;;;;;;952934;148;27468;-77
2022/07/29 05:54:18;;;;;;;3.10;1.60;;;27.20;47.20;;;;;;951977;147;27354;-78
2022/07/29 05:56:44;;;;;;;2.35;1.67;;;27.90;46.40;;;;;;952956;150;27323;-77
2022/07/29 05:59:11;;;;;;;2.92;1.67;;;28.50;45.50;;;;;;951564;148;27668;-78
2022/07/29 06:01:39;;;;;;;2.27;1.60;;;29.10;44.80;;;;;;953066;147;27421;-78
2022/07/29 06:04:04;;;;;;;3.08;1.85;;;29.70;44.20;;;;;;953169;148;27351;-77
2022/07/29 06:06:31;;;;;;;3.83;1.67;;;30.30;43.30;;;;;;952483;147;28457;-78
2022/07/29 06:08:57;;;;;;;2.98;1.57;;;30.80;42.50;;;;;;952062;148;27307;-78
2022/07/29 06:11:24;;;;;;;2.60;2.00;;;31.20;41.30;;;;;;952625;147;27316;-78
2022/07/29 06:13:51;;;;;;;3.00;2.20;;;31.50;39.60;;;;;;952523;147;27307;-78
2022/07/29 06:16:17;;;;;;;2.30;1.95;;;31.70;39.50;;;;;;951092;150;27897;-78
2022/07/29 06:18:44;;;;;;;2.22;1.80;;;31.60;38.50;;;;;;952717;147;27346;-78
2022/07/29 06:21:10;;;;;;;1.82;1.57;;;31.50;38.40;;;;;;952429;147;27304;-77
2022/07/29 06:23:37;;;;;;;2.15;2.00;;;31.40;38.20;;;;;;952064;150;27276;-77
2022/07/29 06:26:03;;;;;;;2.87;2.05;;;31.20;38.20;;;;;;952535;147;27589;-78
2022/07/29 06:28:30;;;;;;;2.37;2.17;;;31.10;38.60;;;;;;951853;147;27333;-77
2022/07/29 06:30:57;;;;;;;3.70;3.40;;;31.20;39.00;;;;;;953184;148;27342;-77
2022/07/29 06:33:23;;;;;;;4.30;3.90;;;31.40;39.30;;;;;;952622;148;27331;-78
2022/07/29 06:35:50;;;;;;;5.75;3.00;;;31.80;39.50;;;;;;953501;147;27380;-78
2022/07/29 06:38:17;;;;;;;3.77;2.60;;;32.30;39.50;;;;;;952648;148;27840;-78
2022/07/29 06:41:16;;;;;;;3.62;2.15;;;32.90;39.10;;;;;;953186;149;27397;-78
2022/07/29 06:43:16;;;;;;;2.67;2.12;;;33.60;39.00;;;;;;951407;147;26259;-78
2022/07/29 06:45:43;;;;;;;5.50;2.80;;;34.40;38.50;;;;;;952922;150;27694;-78
2022/07/29 06:48:09;;;;;;;3.47;3.17;;;35.20;38.00;;;;;;953321;147;26288;-78
2022/07/29 06:50:35;;;;;;;4.67;2.98;;;36.00;37.20;;;;;;952815;147;26195;-78
2022/07/29 06:53:02;;;;;;;3.52;2.50;;;36.80;36.60;;;;;;953151;148;26328;-78
2022/07/29 06:55:29;;;;;;;3.85;2.12;;;37.50;35.70;;;;;;951673;150;26370;-78
2022/07/29 06:57:55;;;;;;;2.52;1.70;;;38.30;34.70;;;;;;953249;147;26343;-78
2022/07/29 07:00:22;;;;;;;1.87;1.45;;;38.90;34.00;;;;;;952927;148;26272;-78
2022/07/29 07:02:48;;;;;;;1.70;1.42;;;39.50;33.30;;;;;;952665;150;26246;-79
2022/07/29 07:05:15;;;;;;;5.78;1.72;;;40.00;32.50;;;;;;952868;147;26192;-78
2022/07/29 07:07:42;;;;;;;2.55;1.77;;;40.30;31.60;;;;;;953057;148;26195;-78
2022/07/29 07:10:08;;;;;;;2.70;1.62;;;40.70;31.10;;;;;;952967;147;26681;-78
2022/07/29 07:12:35;;;;;;;1.98;1.77;;;41.00;30.70;;;;;;952612;147;26255;-79
2022/07/29 07:15:01;;;;;;;3.10;1.90;;;41.30;30.20;;;;;;947220;147;26256;-79
2022/07/29 07:17:28;;;;;;;5.95;1.87;;;41.60;29.90;;;;;;940358;149;26202;-79
2022/07/29 07:19:54;;;;;;;1.70;1.60;;;41.80;29.50;;;;;;939116;149;26242;-78
2022/07/29 07:22:21;;;;;;;3.10;1.60;;;42.10;29.40;;;;;;939627;149;26269;-79
2022/07/29 07:24:48;;;;;;;2.52;1.50;;;42.30;29.20;;;;;;940250;149;26277;-79
2022/07/29 07:27:14;;;;;;;1.82;1.40;;;42.70;28.80;;;;;;940606;150;26339;-79
2022/07/29 07:29:41;;;;;;;1.85;1.55;;;43.00;28.60;;;;;;940117;149;26201;-79
2022/07/29 07:32:07;;;;;;;1.85;1.60;;;43.30;28.20;;;;;;939140;149;26241;-79
2022/07/29 07:34:34;;;;;;;2.02;1.82;;;43.70;27.70;;;;;;939652;150;26210;-79
2022/07/29 07:37:01;;;;;;;1.98;1.60;;;43.90;27.40;;;;;;939433;149;27015;-79
2022/07/29 07:39:27;;;;;;;1.50;1.37;;;44.10;27.10;;;;;;940383;149;26157;-79
2022/07/29 07:41:54;;;;;;;4.03;1.37;;;44.20;26.80;;;;;;939165;149;26222;-79
2022/07/29 07:44:20;;;;;;;2.42;1.55;;;44.40;26.70;;;;;;939256;150;26229;-79
2022/07/29 07:46:47;;;;;;;2.02;1.55;;;44.50;26.40;;;;;;940686;152;26240;-79
2022/07/29 07:49:14;;;;;;;3.92;1.70;;;44.70;26.30;;;;;;939650;152;26345;-79
2022/07/29 07:51:40;;;;;;;1.67;1.57;;;44.90;26.20;;;;;;939758;151;26389;-79
2022/07/29 07:54:07;;;;;;;3.10;1.37;;;45.10;25.90;;;;;;939633;149;26301;-79
2022/07/29 07:56:33;;;;;;;2.20;1.50;;;45.30;25.80;;;;;;939376;149;26306;-79
2022/07/29 07:59:00;;;;;;;1.75;1.65;;;45.50;25.60;;;;;;940117;152;26375;-79
2022/07/29 08:01:26;;;;;;;2.35;1.52;;;45.70;25.50;;;;;;939785;149;26256;-79
2022/07/29 08:03:53;;;;;;;1.65;1.50;;;45.90;25.40;;;;;;939375;149;26340;-82
2022/07/29 08:06:20;;;;;;;1.67;1.57;;;46.30;25.20;;;;;;939556;149;26206;-79
2022/07/29 08:08:46;;;;;;;2.85;1.40;;;46.50;24.80;;;;;;941181;149;26229;-79
2022/07/29 08:11:13;;;;;;;3.12;1.52;;;46.70;24.50;;;;;;940274;149;26319;-79
2022/07/29 08:13:39;;;;;;;1.87;1.70;;;46.80;24.20;;;;;;939308;149;26734;-79
2022/07/29 08:16:12;;;;;;;2.35;1.67;;;46.80;23.70;;;;;;940446;149;26381;-79
2022/07/29 08:18:38;;;;;;;1.47;1.37;;;46.80;24.10;;;;;;939844;149;26181;-79
2022/07/29 08:21:05;;;;;;;1.85;1.32;;;46.80;24.00;;;;;;940170;149;26653;-78
2022/07/29 08:23:38;;;;;;;1.62;1.47;;;46.90;24.00;;;;;;938717;149;26240;-78
2022/07/29 08:25:58;;;;;;;1.80;1.30;;;47.00;23.90;;;;;;938971;152;26309;-79
2022/07/29 08:28:24;;;;;;;2.72;1.45;;;47.20;23.80;;;;;;940051;152;26269;-79
2022/07/29 08:30:51;;;;;;;1.40;1.30;;;47.50;24.10;;;;;;940320;151;26285;-79
2022/07/29 08:33:18;;;;;;;2.45;1.37;;;47.70;23.40;;;;;;940592;150;26221;-79
2022/07/29 08:35:45;;;;;;;1.75;1.55;;;47.80;23.10;;;;;;940081;152;26282;-78
2022/07/29 08:38:11;;;;;;;4.60;1.77;;;47.90;23.00;;;;;;939713;152;26353;-78
2022/07/29 08:40:37;;;;;;;1.52;1.25;;;47.90;22.90;;;;;;939108;150;26257;-79
2022/07/29 08:43:07;;;;;;;1.40;1.30;;;47.80;23.00;;;;;;939523;152;26214;-79
2022/07/29 08:45:43;;;;;;;2.30;1.75;;;47.80;23.00;;;;;;940237;152;26308;-79
2022/07/29 08:48:09;;;;;;;3.87;1.52;;;47.80;23.00;;;;;;939284;152;26162;-79
2022/07/29 08:50:36;;;;;;;2.60;1.70;;;47.80;22.80;;;;;;939546;152;26245;-78
2022/07/29 08:53:02;;;;;;;2.00;1.57;;;47.70;22.70;;;;;;940363;151;26289;-79
2022/07/29 08:55:29;;;;;;;2.15;1.37;;;47.70;22.80;;;;;;940578;149;26364;-79
2022/07/29 08:57:55;;;;;;;2.87;1.47;;;47.70;22.70;;;;;;940108;152;26229;-79
2022/07/29 09:00:22;;;;;;;1.62;1.30;;;47.80;22.60;;;;;;940079;151;26224;-79
2022/07/29 09:02:51;;;;;;;3.50;1.37;;;47.90;22.40;;;;;;940031;151;26185;-80
2022/07/29 09:05:15;;;;;;;1.07;1.00;;;47.90;22.40;;;;;;917574;150;26303;-80
2022/07/29 09:07:43;;;;;;;3.75;1.42;;;47.80;22.30;;;;;;920011;150;28465;-81
2022/07/29 09:10:08;;;;;;;1.62;1.52;;;47.80;22.30;;;;;;943868;148;26191;-80
2022/07/29 09:12:35;;;;;;;1.67;1.50;;;47.60;22.20;;;;;;944145;148;26292;-79
2022/07/29 09:15:01;;;;;;;2.42;1.50;;;47.50;22.30;;;;;;935645;149;26270;-78
2022/07/29 09:17:43;;;;;;;2.30;1.50;;;47.30;22.20;;;;;;940274;148;26803;-78
2022/07/29 09:20:15;;;;;;;1.50;1.40;;;47.10;22.20;;;;;;938757;150;26826;-79
2022/07/29 09:22:42;;;;;;;2.77;1.60;;;46.80;22.30;;;;;;939140;150;26200;-79
2022/07/29 09:25:09;;;;;;;3.72;1.70;;;46.40;22.40;;;;;;938595;150;26293;-79
2022/07/29 09:27:35;;;;;;;2.27;1.50;;;46.10;22.70;;;;;;937618;150;26244;-79
2022/07/29 09:30:10;;;;;;;3.55;1.52;;;45.70;22.70;;;;;;924026;152;26285;-79
2022/07/29 09:32:34;;;;;;;3.72;1.85;;;45.30;22.80;;;;;;943478;150;26237;-79
2022/07/29 09:35:22;;;;;;;2.37;1.62;;;44.90;22.40;;;;;;917961;153;26289;-79
2022/07/29 09:37:48;;;;;;;1.57;1.47;;;44.60;23.00;;;;;;925443;153;26302;-79
2022/07/29 09:40:15;;;;;;;1.82;1.45;;;44.40;23.50;;;;;;925720;153;26146;-79
2022/07/29 09:42:42;;;;;;;1.67;1.55;;;44.40;23.70;;;;;;929702;152;26296;-79
2022/07/29 09:45:08;;;;;;;1.60;1.50;;;44.40;23.80;;;;;;938320;150;26368;-79
2022/07/29 09:47:41;;;;;;;2.00;1.80;;;44.60;24.00;;;;;;941774;150;26298;-79
2022/07/29 09:50:07;;;;;;;2.30;1.60;;;44.80;23.90;;;;;;931422;152;26304;-80
2022/07/29 09:52:34;;;;;;;2.25;1.70;;;44.90;23.70;;;;;;933382;152;26312;-80
2022/07/29 09:55:07;;;;;;;2.25;1.90;;;44.80;23.50;;;;;;933255;152;26253;-78
2022/07/29 09:57:33;;;;;;;3.42;1.67;;;44.70;23.40;;;;;;933422;152;26275;-78
2022/07/29 10:00:00;;;;;;;1.62;1.52;;;44.60;23.80;;;;;;932163;152;26300;-78
2022/07/29 10:02:29;;;;;;;5.35;1.55;;;44.40;23.80;;;;;;930488;152;26271;-78
2022/07/29 10:04:56;;;;;;;1.92;1.52;;;44.20;23.60;;;;;;936238;152;26397;-78
2022/07/29 10:07:22;;;;;;;2.30;1.67;;;43.90;23.70;;;;;;930506;152;26277;-79
2022/07/29 10:09:55;;;;;;;1.70;1.60;;;43.60;23.80;;;;;;923292;153;26273;-80
2022/07/29 10:12:22;;;;;;;1.50;1.30;;;43.20;24.10;;;;;;941983;150;28785;-77
2022/07/29 10:14:48;;;;;;;2.58;1.75;;;43.00;24.40;;;;;;925595;153;26245;-78
2022/07/29 10:17:15;;;;;;;1.95;1.60;;;42.80;24.50;;;;;;931512;150;26286;-79
2022/07/29 10:19:42;;;;;;;1.80;1.70;;;42.70;24.00;;;;;;956030;147;26304;-77
2022/07/29 10:22:08;;;;;;;1.77;1.67;;;42.70;24.60;;;;;;941983;149;28129;-76
2022/07/29 10:24:35;;;;;;;3.52;1.70;;;42.60;24.60;;;;;;956262;147;26284;-77
2022/07/29 10:27:01;;;;;;;1.70;1.40;;;42.50;24.50;;;;;;940048;150;26350;-77
2022/07/29 10:29:28;;;;;;;1.40;1.30;;;42.30;24.80;;;;;;939461;150;26277;-80
2022/07/29 10:32:00;;;;;;;1.37;1.35;;;42.00;24.90;;;;;;957517;147;26295;-77
2022/07/29 10:34:33;;;;;;;2.12;1.70;;;41.80;25.20;;;;;;940824;149;27382;-75
2022/07/29 10:37:11;;;;;;;1.77;1.60;;;41.50;25.20;;;;;;940413;150;27387;-75
2022/07/29 10:39:43;;;;;;;1.67;1.57;;;41.30;25.40;;;;;;939775;149;26213;-76
2022/07/29 10:42:23;;;;;;;1.42;1.32;;;40.90;25.60;;;;;;939917;149;26709;-77
2022/07/29 10:44:48;;;;;;;1.80;1.50;;;40.40;25.70;;;;;;940966;149;26300;-77
2022/07/29 10:47:24;;;;;;;2.20;1.30;;;39.90;25.60;;;;;;935688;150;26359;-77
2022/07/29 10:50:00;;;;;;;1.50;1.40;;;39.30;25.80;;;;;;957579;147;27343;-77
2022/07/29 10:52:28;;;;;;;18.35;3.33;;;38.80;26.20;;;;;;938904;150;35979;-77
2022/07/29 10:54:53;;;;;;;3.22;1.85;;;38.40;26.90;;;;;;929128;149;36187;-72
2022/07/29 10:57:29;;;;;;;3.25;1.90;;;37.90;27.80;;;;;;950432;147;35928;-71
2022/07/29 11:00:03;;;;;;;1.67;1.57;;;37.40;28.70;;;;;;940722;150;27377;-68
2022/07/29 11:02:36;;;;;;;1.45;1.37;;;37.20;28.10;;;;;;957278;147;26254;-69
2022/07/29 11:05:06;;;;;;;2.02;1.70;;;37.10;28.10;;;;;;949823;149;27326;-70
2022/07/29 11:07:34;;;;;;;1.70;1.35;;;37.10;28.20;;;;;;944585;151;27315;-70
2022/07/29 11:10:18;;;;;;;1.77;1.55;;;37.00;28.20;;;;;;944464;151;27352;-72
2022/07/29 11:12:43;;;;;;;11.85;2.00;;;36.90;28.30;;;;;;940815;151;27337;-71
2022/07/29 11:15:17;;;;;;;1.60;1.50;;;36.80;28.30;;;;;;944662;151;27317;-70
2022/07/29 11:17:57;;;;;;;2.83;1.80;;;36.70;28.50;;;;;;942647;150;27447;-70
2022/07/29 11:20:41;;;;;;;3.25;1.62;;;36.70;28.70;;;;;;939763;149;27744;-70
2022/07/29 11:23:27;;;;;;;2.20;1.50;;;36.60;28.70;;;;;;940501;149;27301;-72
2022/07/29 11:26:12;;;;;;;2.37;1.50;;;36.50;29.10;;;;;;940019;149;27349;-70
2022/07/29 11:28:39;;;;;;;2.02;1.72;;;36.40;28.70;;;;;;940988;149;27353;-77
2022/07/29 11:31:05;;;;;;;2.75;1.62;;;36.30;28.80;;;;;;929573;151;27403;-76
2022/07/29 11:33:32;;;;;;;4.08;1.90;;;36.20;28.80;;;;;;940323;149;27391;-76
2022/07/29 11:36:10;;;;;;;2.60;2.00;;;36.00;29.00;;;;;;940011;151;27467;-76
2022/07/29 11:38:37;;;;;;;1.95;1.67;;;35.90;29.00;;;;;;940054;149;27341;-75
2022/07/29 11:41:24;;;;;;;1.98;1.70;;;35.80;29.10;;;;;;939918;149;27422;-75
2022/07/29 11:43:59;;;;;;;1.92;1.77;;;35.70;29.20;;;;;;939791;149;27394;-83
2022/07/29 11:46:48;;;;;;;2.98;1.70;;;35.50;29.20;;;;;;939076;149;27808;-81
2022/07/29 11:49:12;;;;;;;3.42;2.02;;;35.20;29.60;;;;;;939122;152;27306;-84
2022/07/29 11:51:39;;;;;;;2.67;1.57;;;35.10;29.80;;;;;;939227;150;27391;-75
2022/07/29 11:54:05;;;;;;;3.40;1.72;;;34.90;29.90;;;;;;940698;149;27360;-75
2022/07/29 11:56:32;;;;;;;1.30;1.27;;;34.90;30.00;;;;;;940212;149;27333;-77
2022/07/29 11:59:04;;;;;;;2.20;1.70;;;34.80;30.20;;;;;;940151;149;27640;-77
2022/07/29 12:01:31;;;;;;;2.22;2.00;;;34.80;30.50;;;;;;939697;151;27323;-77
2022/07/29 12:04:07;;;;;;;2.10;1.90;;;34.80;30.50;;;;;;939509;149;27305;-78
2022/07/29 12:06:33;;;;;;;3.52;1.98;;;34.80;30.70;;;;;;940359;149;27693;-78
2022/07/29 12:09:00;;;;;;;4.37;1.77;;;34.90;30.70;;;;;;939171;149;28360;-78
2022/07/29 12:11:26;;;;;;;2.25;2.15;;;34.90;30.50;;;;;;940378;149;27479;-78
2022/07/29 12:13:53;;;;;;;2.20;1.85;;;34.90;30.70;;;;;;940078;152;27388;-78
2022/07/29 12:16:19;;;;;;;1.98;1.75;;;34.90;30.70;;;;;;939940;151;27302;-78
2022/07/29 12:18:56;;;;;;;2.45;1.90;;;34.90;30.70;;;;;;946325;149;27361;-78
2022/07/29 12:21:22;;;;;;;2.40;2.20;;;35.00;30.70;;;;;;952151;150;27438;-78
2022/07/29 12:23:54;;;;;;;1.98;1.57;;;35.00;30.90;;;;;;953531;148;27434;-78
2022/07/29 12:26:21;;;;;;;2.27;1.65;;;35.00;30.70;;;;;;952315;148;27392;-78
2022/07/29 12:28:47;;;;;;;3.15;1.90;;;35.00;30.80;;;;;;953162;147;27422;-77
2022/07/29 12:31:14;;;;;;;2.10;1.90;;;35.00;30.70;;;;;;952869;147;27303;-78
2022/07/29 12:33:40;;;;;;;2.00;1.80;;;35.00;30.70;;;;;;952777;147;27339;-78
2022/07/29 12:36:07;;;;;;;2.15;1.98;;;35.00;30.90;;;;;;952566;150;27440;-78
2022/07/29 12:38:36;;;;;;;2.17;1.90;;;35.00;30.80;;;;;;953138;147;27796;-77
2022/07/29 12:41:03;;;;;;;4.47;1.85;;;35.00;30.70;;;;;;952744;147;27311;-78
2022/07/29 12:43:29;;;;;;;2.10;1.90;;;35.00;30.80;;;;;;952418;147;27359;-78
2022/07/29 12:45:59;;;;;;;1.72;1.60;;;34.90;30.80;;;;;;953062;150;27339;-77
2022/07/29 12:48:35;;;;;;;2.50;2.17;;;34.90;30.90;;;;;;952987;149;27465;-77
2022/07/29 12:51:02;;;;;;;2.20;2.00;;;34.90;31.00;;;;;;952307;149;27358;-77
2022/07/29 12:53:28;;;;;;;2.33;1.72;;;34.80;31.00;;;;;;952073;148;27926;-77